Normed Antwerpen — V2DG9 — position and weather

sailwx.info

Track history (hours):
 
Tides and Currents Weather Stations Pressure Air Temp Water Temp Dewpoint Dewpoint Depression Visibility Wind Speed Wind Dir Waves Ship Positions

Normed Antwerpen

Last reported at 2014-Nov-25 21:18 UTC. Time now 2014-Nov-28 20:33 UTC.
Position N 50°33' W 001°01'.

Length 130 m; draft 6.2 m.

Type: Ship. MMSI: 305210993.

Date/timePositionNaut miles runAvg speedWind from/ knotsBaromVisibWave heightAir tempDewpointWater temp
2014-Nov-25 21:18N 50°33' W 001°01'810.9
2014-Nov-25 20:32N 50°41' W 000°58'9 9.3
2014-Nov-25 19:33N 50°46' W 001°10'1010.1
2014-Nov-25 18:33N 50°52' W 001°23'2 0.4
2014-Nov-25 13:05N 50°54' W 001°25'0 0.0
2014-Nov-25 12:19N 50°54' W 001°25'0 0.0
2014-Nov-25 11:31N 50°54' W 001°25'0 0.0
2014-Nov-25 10:33N 50°54' W 001°25'0 0.0
2014-Nov-25 09:33N 50°54' W 001°25'0 0.0
2014-Nov-25 06:23N 50°54' W 001°25'0 0.0
2014-Nov-25 05:31N 50°54' W 001°25'0 0.0
2014-Nov-24 20:33N 50°54' W 001°25'0 0.0
2014-Nov-24 18:17N 50°54' W 001°25'0 0.0
2014-Nov-24 16:26N 50°54' W 001°25'0 0.0
2014-Nov-24 11:33N 50°54' W 001°25'0 0.0
2014-Nov-24 10:32N 50°54' W 001°25'0 0.0
2014-Nov-24 09:32N 50°54' W 001°25'0 0.0
2014-Nov-24 08:31N 50°54' W 001°25'0 0.0
2014-Nov-24 07:31N 50°54' W 001°25'0 0.0
2014-Nov-24 06:33N 50°54' W 001°25'0 0.0
2014-Nov-24 05:33N 50°54' W 001°25'0 0.0
2014-Nov-24 04:33N 50°54' W 001°25'0 0.0
2014-Nov-24 03:32N 50°54' W 001°25'0 0.0
2014-Nov-24 02:32N 50°54' W 001°25'0 0.0
2014-Nov-24 01:22N 50°54' W 001°25'0 0.0
2014-Nov-24 00:31N 50°54' W 001°25'0 0.0
2014-Nov-23 23:33N 50°54' W 001°25'0 0.0
2014-Nov-23 21:32N 50°54' W 001°25'0 0.0
2014-Nov-23 20:32N 50°54' W 001°25'0 0.0
2014-Nov-23 19:32N 50°54' W 001°25'0 0.0
2014-Nov-23 18:33N 50°54' W 001°25'0 0.0
2014-Nov-23 17:31N 50°54' W 001°25'1 1.3
2014-Nov-23 16:33N 50°53' W 001°24'7 7.1
2014-Nov-23 15:34N 50°47' W 001°19'9 9.4
2014-Nov-23 14:33N 50°44' W 001°04'9 9.3
2014-Nov-23 13:33N 50°38' W 000°53'1413.7
2014-Nov-23 12:33N 50°35' W 000°32'2912.8
2014-Nov-23 10:20N 50°34' E 000°13'911.8
2014-Nov-23 09:33N 50°37' E 000°26'1211.6
2014-Nov-23 08:33N 50°42' E 000°43'1312.7
2014-Nov-23 07:33N 50°49' E 000°59'1514.6
2014-Nov-23 06:30N 50°59' E 001°18'1415.2
2014-Nov-23 05:34N 51°08' E 001°36'1313.4
2014-Nov-23 04:33N 51°18' E 001°50'1110.9
2014-Nov-23 03:33N 51°24' E 002°05'1211.9
2014-Nov-23 02:31N 51°22' E 002°25'1211.6
2014-Nov-23 01:31N 51°23' E 002°43'1111.3
2014-Nov-23 00:33N 51°24' E 003°01'1111.0
2014-Nov-22 23:31N 51°25' E 003°19'1010.8
2014-Nov-22 22:33N 51°26' E 003°36'10 9.8
2014-Nov-22 21:34N 51°21' E 003°49'9 8.9
2014-Nov-22 20:34N 51°24' E 004°02'10 9.8
2014-Nov-22 19:33N 51°21' E 004°17'0 0.0
2014-Nov-22 18:33N 51°21' E 004°17'0 0.3
2014-Nov-22 17:33N 51°21' E 004°18'4 4.2
2014-Nov-22 16:34N 51°17' E 004°21'0 0.0
2014-Nov-22 15:32N 51°17' E 004°21'0 0.0
2014-Nov-22 14:32N 51°17' E 004°21'0 0.0
2014-Nov-22 13:31N 51°17' E 004°21'0 0.0
2014-Nov-22 12:31N 51°17' E 004°21'0 0.0
2014-Nov-22 11:33N 51°17' E 004°21'0 0.0
2014-Nov-22 10:33N 51°17' E 004°21'0 0.0
2014-Nov-22 09:33N 51°17' E 004°21'0 0.0
2014-Nov-22 08:32N 51°17' E 004°21'0 0.0
2014-Nov-22 07:23N 51°17' E 004°21'0 0.0
2014-Nov-22 06:31N 51°17' E 004°21'0 0.0
2014-Nov-22 05:31N 51°17' E 004°21'0 0.0
2014-Nov-22 04:33N 51°17' E 004°21'0 0.0
2014-Nov-22 03:30N 51°17' E 004°21'0 0.0
2014-Nov-22 02:33N 51°17' E 004°21'0 0.0
2014-Nov-22 01:32N 51°17' E 004°21'0 0.0
2014-Nov-22 00:32N 51°17' E 004°21'0 0.0
2014-Nov-21 23:28N 51°17' E 004°21'0 0.0
2014-Nov-21 22:31N 51°17' E 004°21'2 2.2
2014-Nov-21 21:33N 51°15' E 004°22'2 1.6
2014-Nov-21 20:32N 51°15' E 004°24'0 0.0
2014-Nov-21 19:32N 51°15' E 004°24'0 0.0
2014-Nov-21 18:31N 51°15' E 004°24'0 0.0
2014-Nov-21 17:31N 51°15' E 004°24'0 0.0
2014-Nov-21 16:33N 51°15' E 004°24'0 0.0
2014-Nov-21 15:33N 51°15' E 004°24'0 0.0
2014-Nov-21 14:33N 51°15' E 004°24'0 0.0
2014-Nov-21 13:32N 51°15' E 004°24'0 0.0
2014-Nov-21 12:32N 51°15' E 004°24'0 0.0
2014-Nov-21 11:31N 51°15' E 004°24'0 0.0
2014-Nov-21 10:31N 51°15' E 004°24'0 0.0
2014-Nov-21 09:33N 51°15' E 004°24'0 0.0
2014-Nov-21 08:33N 51°15' E 004°24'0 0.0
2014-Nov-21 07:33N 51°15' E 004°24'0 0.0
2014-Nov-21 06:32N 51°15' E 004°24'0 0.0
2014-Nov-21 05:32N 51°15' E 004°24'0 0.0
2014-Nov-21 04:31N 51°15' E 004°24'0 0.0
2014-Nov-21 03:31N 51°15' E 004°24'0 0.0
2014-Nov-21 02:33N 51°15' E 004°24'0 0.0
2014-Nov-21 01:33N 51°15' E 004°24'0 0.0
2014-Nov-21 00:32N 51°15' E 004°24'0 0.0
2014-Nov-20 23:32N 51°15' E 004°24'0 0.0
2014-Nov-20 22:32N 51°15' E 004°24'0 0.0
2014-Nov-20 21:31N 51°15' E 004°24'0 0.0
2014-Nov-20 20:31N 51°15' E 004°24'0 0.0
2014-Nov-20 19:33N 51°15' E 004°24'0 0.0
2014-Nov-20 18:33N 51°15' E 004°24'0 0.0
2014-Nov-20 17:32N 51°15' E 004°24'0 0.0
2014-Nov-20 16:29N 51°15' E 004°24'0 0.0
2014-Nov-20 15:32N 51°15' E 004°24'0 0.0
2014-Nov-20 14:31N 51°15' E 004°24'0 0.0
2014-Nov-20 13:31N 51°15' E 004°24'0 0.0
2014-Nov-20 12:33N 51°15' E 004°24'0 0.0
2014-Nov-20 11:33N 51°15' E 004°24'0 0.0
2014-Nov-20 10:32N 51°15' E 004°24'0 0.0
2014-Nov-20 09:32N 51°15' E 004°24'0 0.0
2014-Nov-20 08:32N 51°15' E 004°24'0 0.0
2014-Nov-20 07:31N 51°15' E 004°24'0 0.0
2014-Nov-20 06:31N 51°15' E 004°24'0 0.0
2014-Nov-20 05:33N 51°15' E 004°24'0 0.0
2014-Nov-20 04:33N 51°15' E 004°24'0 0.0
2014-Nov-20 03:32N 51°15' E 004°24'0 0.0
2014-Nov-20 02:32N 51°15' E 004°24'0 0.0
2014-Nov-20 01:31N 51°15' E 004°24'0 0.0
2014-Nov-20 00:31N 51°15' E 004°24'0 0.0
2014-Nov-19 23:31N 51°15' E 004°24'0 0.0
2014-Nov-19 22:33N 51°15' E 004°24'0 0.0
2014-Nov-19 21:33N 51°15' E 004°24'0 0.0
2014-Nov-19 20:32N 51°15' E 004°24'0 0.0
2014-Nov-19 19:32N 51°15' E 004°24'0 0.0
2014-Nov-19 18:32N 51°15' E 004°24'0 0.0
2014-Nov-19 17:31N 51°15' E 004°24'0 0.0
2014-Nov-19 16:32N 51°15' E 004°24'0 0.0
2014-Nov-19 15:33N 51°15' E 004°24'0 0.0
2014-Nov-19 14:33N 51°15' E 004°24'0 0.0
2014-Nov-19 13:32N 51°15' E 004°24'0 0.0
2014-Nov-19 12:32N 51°15' E 004°24'0 0.0
2014-Nov-19 11:31N 51°15' E 004°24'0 0.0
2014-Nov-19 10:32N 51°15' E 004°24'0 0.0
2014-Nov-19 09:33N 51°15' E 004°24'0 0.0
2014-Nov-19 08:31N 51°15' E 004°24'0 0.0
2014-Nov-19 07:33N 51°15' E 004°24'0 0.0
2014-Nov-19 06:33N 51°15' E 004°24'0 0.0
2014-Nov-19 05:33N 51°15' E 004°24'0 0.0
2014-Nov-19 04:32N 51°15' E 004°24'0 0.0
2014-Nov-19 03:32N 51°15' E 004°24'0 0.0
2014-Nov-19 02:31N 51°15' E 004°24'0 0.0
2014-Nov-19 01:31N 51°15' E 004°24'0 0.0
2014-Nov-19 00:33N 51°15' E 004°24'0 0.0
2014-Nov-18 23:33N 51°15' E 004°24'0 0.0
2014-Nov-18 22:33N 51°15' E 004°24'0 0.0
2014-Nov-18 21:32N 51°15' E 004°24'0 0.0
2014-Nov-18 20:32N 51°15' E 004°24'0 0.0
2014-Nov-18 19:31N 51°15' E 004°24'0 0.0
2014-Nov-18 18:31N 51°15' E 004°24'0 0.0
2014-Nov-18 17:33N 51°15' E 004°24'0 0.0
2014-Nov-18 16:33N 51°15' E 004°24'0 0.0
2014-Nov-18 15:33N 51°15' E 004°24'0 0.0
2014-Nov-18 14:32N 51°15' E 004°24'0 0.0
2014-Nov-18 13:32N 51°15' E 004°24'0 0.0
2014-Nov-18 12:31N 51°15' E 004°24'0 0.0
2014-Nov-18 11:31N 51°15' E 004°24'0 0.0
2014-Nov-18 10:33N 51°15' E 004°24'0 0.0
2014-Nov-18 09:33N 51°15' E 004°24'0 0.0
2014-Nov-18 08:33N 51°15' E 004°24'0 0.0
2014-Nov-18 07:32N 51°15' E 004°24'0 0.0
2014-Nov-18 06:32N 51°15' E 004°24'0 0.0
2014-Nov-18 05:31N 51°15' E 004°24'0 0.0
2014-Nov-18 04:31N 51°15' E 004°24'0 0.0
2014-Nov-18 03:33N 51°15' E 004°24'0 0.0
2014-Nov-18 02:33N 51°15' E 004°24'0 0.0
2014-Nov-18 01:33N 51°15' E 004°24'0 0.0
2014-Nov-18 00:32N 51°15' E 004°24'0 0.0
2014-Nov-17 23:32N 51°15' E 004°24'0 0.0
2014-Nov-17 22:31N 51°15' E 004°24'0 0.0
2014-Nov-17 21:31N 51°15' E 004°24'0 0.0
2014-Nov-17 20:33N 51°15' E 004°24'0 0.0
2014-Nov-17 19:33N 51°15' E 004°24'0 0.0
2014-Nov-17 18:32N 51°15' E 004°24'0 0.0
2014-Nov-17 17:32N 51°15' E 004°24'0 0.0
2014-Nov-17 16:32N 51°15' E 004°24'0 0.0
2014-Nov-17 15:31N 51°15' E 004°24'0 0.0
2014-Nov-17 14:31N 51°15' E 004°24'0 0.0
2014-Nov-17 13:33N 51°15' E 004°24'0 0.0
2014-Nov-17 12:33N 51°15' E 004°24'0 0.0
2014-Nov-17 11:32N 51°15' E 004°24'0 0.0
2014-Nov-17 10:32N 51°15' E 004°24'0 0.0
2014-Nov-17 09:32N 51°15' E 004°24'0 0.0
2014-Nov-17 08:31N 51°15' E 004°24'0 0.0
2014-Nov-17 07:31N 51°15' E 004°24'0 0.0
2014-Nov-17 06:33N 51°15' E 004°24'0 0.0
2014-Nov-17 05:33N 51°15' E 004°24'0 0.0
2014-Nov-17 04:32N 51°15' E 004°24'0 0.0
2014-Nov-17 03:32N 51°15' E 004°24'0 0.0
2014-Nov-17 02:32N 51°15' E 004°24'0 0.0
2014-Nov-17 01:31N 51°15' E 004°24'0 0.0
2014-Nov-17 00:31N 51°15' E 004°24'0 0.0
2014-Nov-16 23:33N 51°15' E 004°24'0 0.0
2014-Nov-16 22:33N 51°15' E 004°24'0 0.0
2014-Nov-16 21:32N 51°15' E 004°24'0 0.0
2014-Nov-16 20:32N 51°15' E 004°24'0 0.0
2014-Nov-16 19:32N 51°15' E 004°24'0 0.0
2014-Nov-16 18:31N 51°15' E 004°24'0 0.0
2014-Nov-16 17:31N 51°15' E 004°24'0 0.0
2014-Nov-16 16:33N 51°15' E 004°24'0 0.0
2014-Nov-16 15:33N 51°15' E 004°24'0 0.0
2014-Nov-16 14:32N 51°15' E 004°24'0 0.0
2014-Nov-16 13:32N 51°15' E 004°24'0 0.0
2014-Nov-16 12:32N 51°15' E 004°24'0 0.0
2014-Nov-16 11:31N 51°15' E 004°24'0 0.0
2014-Nov-16 10:31N 51°15' E 004°24'0 0.0
2014-Nov-16 09:33N 51°15' E 004°24'0 0.0
2014-Nov-16 08:33N 51°15' E 004°24'0 0.0
2014-Nov-16 07:32N 51°15' E 004°24'0 0.0
2014-Nov-16 06:32N 51°15' E 004°24'0 0.0
2014-Nov-16 05:31N 51°15' E 004°24'0 0.0
2014-Nov-16 04:31N 51°15' E 004°24'0 0.0
2014-Nov-16 03:31N 51°15' E 004°24'0 0.0
2014-Nov-16 02:33N 51°15' E 004°24'0 0.0
2014-Nov-16 01:33N 51°15' E 004°24'0 0.0
2014-Nov-16 00:32N 51°15' E 004°24'0 0.0
2014-Nov-15 23:32N 51°15' E 004°24'0 0.0
2014-Nov-15 22:31N 51°15' E 004°24'0 0.0
2014-Nov-15 21:31N 51°15' E 004°24'  
Track history (hours):
 
Tides and Currents Weather Stations Pressure Air Temp Water Temp Dewpoint Dewpoint Depression Visibility Wind Speed Wind Dir Waves Ship Positions

Normed Antwerpen

Last reported at 2014-Nov-25 21:18 UTC. Time now 2014-Nov-28 20:33 UTC.
Position N 50°33' W 001°01'.

Length 130 m; draft 6.2 m.

Type: Ship. MMSI: 305210993.

Date/timePositionNaut miles runAvg speedWind from/ knotsBaromVisibWave heightAir tempDewpointWater temp
2014-Nov-25 21:18N 50°33' W 001°01'810.9
2014-Nov-25 20:32N 50°41' W 000°58'9 9.3
2014-Nov-25 19:33N 50°46' W 001°10'1010.1
2014-Nov-25 18:33N 50°52' W 001°23'2 0.4
2014-Nov-25 13:05N 50°54' W 001°25'0 0.0
2014-Nov-25 12:19N 50°54' W 001°25'0 0.0
2014-Nov-25 11:31N 50°54' W 001°25'0 0.0
2014-Nov-25 10:33N 50°54' W 001°25'0 0.0
2014-Nov-25 09:33N 50°54' W 001°25'0 0.0
2014-Nov-25 06:23N 50°54' W 001°25'0 0.0
2014-Nov-25 05:31N 50°54' W 001°25'0 0.0
2014-Nov-24 20:33N 50°54' W 001°25'0 0.0
2014-Nov-24 18:17N 50°54' W 001°25'0 0.0
2014-Nov-24 16:26N 50°54' W 001°25'0 0.0
2014-Nov-24 11:33N 50°54' W 001°25'0 0.0
2014-Nov-24 10:32N 50°54' W 001°25'0 0.0
2014-Nov-24 09:32N 50°54' W 001°25'0 0.0
2014-Nov-24 08:31N 50°54' W 001°25'0 0.0
2014-Nov-24 07:31N 50°54' W 001°25'0 0.0
2014-Nov-24 06:33N 50°54' W 001°25'0 0.0
2014-Nov-24 05:33N 50°54' W 001°25'0 0.0
2014-Nov-24 04:33N 50°54' W 001°25'0 0.0
2014-Nov-24 03:32N 50°54' W 001°25'0 0.0
2014-Nov-24 02:32N 50°54' W 001°25'0 0.0
2014-Nov-24 01:22N 50°54' W 001°25'0 0.0
2014-Nov-24 00:31N 50°54' W 001°25'0 0.0
2014-Nov-23 23:33N 50°54' W 001°25'0 0.0
2014-Nov-23 21:32N 50°54' W 001°25'0 0.0
2014-Nov-23 20:32N 50°54' W 001°25'0 0.0
2014-Nov-23 19:32N 50°54' W 001°25'0 0.0
2014-Nov-23 18:33N 50°54' W 001°25'0 0.0
2014-Nov-23 17:31N 50°54' W 001°25'1 1.3
2014-Nov-23 16:33N 50°53' W 001°24'7 7.1
2014-Nov-23 15:34N 50°47' W 001°19'9 9.4
2014-Nov-23 14:33N 50°44' W 001°04'9 9.3
2014-Nov-23 13:33N 50°38' W 000°53'1413.7
2014-Nov-23 12:33N 50°35' W 000°32'2912.8
2014-Nov-23 10:20N 50°34' E 000°13'911.8
2014-Nov-23 09:33N 50°37' E 000°26'1211.6
2014-Nov-23 08:33N 50°42' E 000°43'1312.7
2014-Nov-23 07:33N 50°49' E 000°59'1514.6
2014-Nov-23 06:30N 50°59' E 001°18'1415.2
2014-Nov-23 05:34N 51°08' E 001°36'1313.4
2014-Nov-23 04:33N 51°18' E 001°50'1110.9
2014-Nov-23 03:33N 51°24' E 002°05'1211.9
2014-Nov-23 02:31N 51°22' E 002°25'1211.6
2014-Nov-23 01:31N 51°23' E 002°43'1111.3
2014-Nov-23 00:33N 51°24' E 003°01'1111.0
2014-Nov-22 23:31N 51°25' E 003°19'1010.8
2014-Nov-22 22:33N 51°26' E 003°36'10 9.8
2014-Nov-22 21:34N 51°21' E 003°49'9 8.9
2014-Nov-22 20:34N 51°24' E 004°02'10 9.8
2014-Nov-22 19:33N 51°21' E 004°17'0 0.0
2014-Nov-22 18:33N 51°21' E 004°17'0 0.3
2014-Nov-22 17:33N 51°21' E 004°18'4 4.2
2014-Nov-22 16:34N 51°17' E 004°21'0 0.0
2014-Nov-22 15:32N 51°17' E 004°21'0 0.0
2014-Nov-22 14:32N 51°17' E 004°21'0 0.0
2014-Nov-22 13:31N 51°17' E 004°21'0 0.0
2014-Nov-22 12:31N 51°17' E 004°21'0 0.0
2014-Nov-22 11:33N 51°17' E 004°21'0 0.0
2014-Nov-22 10:33N 51°17' E 004°21'0 0.0
2014-Nov-22 09:33N 51°17' E 004°21'0 0.0
2014-Nov-22 08:32N 51°17' E 004°21'0 0.0
2014-Nov-22 07:23N 51°17' E 004°21'0 0.0
2014-Nov-22 06:31N 51°17' E 004°21'0 0.0
2014-Nov-22 05:31N 51°17' E 004°21'0 0.0
2014-Nov-22 04:33N 51°17' E 004°21'0 0.0
2014-Nov-22 03:30N 51°17' E 004°21'0 0.0
2014-Nov-22 02:33N 51°17' E 004°21'0 0.0
2014-Nov-22 01:32N 51°17' E 004°21'0 0.0
2014-Nov-22 00:32N 51°17' E 004°21'0 0.0
2014-Nov-21 23:28N 51°17' E 004°21'0 0.0
2014-Nov-21 22:31N 51°17' E 004°21'2 2.2
2014-Nov-21 21:33N 51°15' E 004°22'2 1.6
2014-Nov-21 20:32N 51°15' E 004°24'0 0.0
2014-Nov-21 19:32N 51°15' E 004°24'0 0.0
2014-Nov-21 18:31N 51°15' E 004°24'0 0.0
2014-Nov-21 17:31N 51°15' E 004°24'0 0.0
2014-Nov-21 16:33N 51°15' E 004°24'0 0.0
2014-Nov-21 15:33N 51°15' E 004°24'0 0.0
2014-Nov-21 14:33N 51°15' E 004°24'0 0.0
2014-Nov-21 13:32N 51°15' E 004°24'0 0.0
2014-Nov-21 12:32N 51°15' E 004°24'0 0.0
2014-Nov-21 11:31N 51°15' E 004°24'0 0.0
2014-Nov-21 10:31N 51°15' E 004°24'0 0.0
2014-Nov-21 09:33N 51°15' E 004°24'0 0.0
2014-Nov-21 08:33N 51°15' E 004°24'0 0.0
2014-Nov-21 07:33N 51°15' E 004°24'0 0.0
2014-Nov-21 06:32N 51°15' E 004°24'0 0.0
2014-Nov-21 05:32N 51°15' E 004°24'0 0.0
2014-Nov-21 04:31N 51°15' E 004°24'0 0.0
2014-Nov-21 03:31N 51°15' E 004°24'0 0.0
2014-Nov-21 02:33N 51°15' E 004°24'0 0.0
2014-Nov-21 01:33N 51°15' E 004°24'0 0.0
2014-Nov-21 00:32N 51°15' E 004°24'0 0.0
2014-Nov-20 23:32N 51°15' E 004°24'0 0.0
2014-Nov-20 22:32N 51°15' E 004°24'0 0.0
2014-Nov-20 21:31N 51°15' E 004°24'0 0.0
2014-Nov-20 20:31N 51°15' E 004°24'0 0.0
2014-Nov-20 19:33N 51°15' E 004°24'0 0.0
2014-Nov-20 18:33N 51°15' E 004°24'0 0.0
2014-Nov-20 17:32N 51°15' E 004°24'0 0.0
2014-Nov-20 16:29N 51°15' E 004°24'0 0.0
2014-Nov-20 15:32N 51°15' E 004°24'0 0.0
2014-Nov-20 14:31N 51°15' E 004°24'0 0.0
2014-Nov-20 13:31N 51°15' E 004°24'0 0.0
2014-Nov-20 12:33N 51°15' E 004°24'0 0.0
2014-Nov-20 11:33N 51°15' E 004°24'0 0.0
2014-Nov-20 10:32N 51°15' E 004°24'0 0.0
2014-Nov-20 09:32N 51°15' E 004°24'0 0.0
2014-Nov-20 08:32N 51°15' E 004°24'0 0.0
2014-Nov-20 07:31N 51°15' E 004°24'0 0.0
2014-Nov-20 06:31N 51°15' E 004°24'0 0.0
2014-Nov-20 05:33N 51°15' E 004°24'0 0.0
2014-Nov-20 04:33N 51°15' E 004°24'0 0.0
2014-Nov-20 03:32N 51°15' E 004°24'0 0.0
2014-Nov-20 02:32N 51°15' E 004°24'0 0.0
2014-Nov-20 01:31N 51°15' E 004°24'0 0.0
2014-Nov-20 00:31N 51°15' E 004°24'0 0.0
2014-Nov-19 23:31N 51°15' E 004°24'0 0.0
2014-Nov-19 22:33N 51°15' E 004°24'0 0.0
2014-Nov-19 21:33N 51°15' E 004°24'0 0.0
2014-Nov-19 20:32N 51°15' E 004°24'0 0.0
2014-Nov-19 19:32N 51°15' E 004°24'0 0.0
2014-Nov-19 18:32N 51°15' E 004°24'0 0.0
2014-Nov-19 17:31N 51°15' E 004°24'0 0.0
2014-Nov-19 16:32N 51°15' E 004°24'0 0.0
2014-Nov-19 15:33N 51°15' E 004°24'0 0.0
2014-Nov-19 14:33N 51°15' E 004°24'0 0.0
2014-Nov-19 13:32N 51°15' E 004°24'0 0.0
2014-Nov-19 12:32N 51°15' E 004°24'0 0.0
2014-Nov-19 11:31N 51°15' E 004°24'0 0.0
2014-Nov-19 10:32N 51°15' E 004°24'0 0.0
2014-Nov-19 09:33N 51°15' E 004°24'0 0.0
2014-Nov-19 08:31N 51°15' E 004°24'0 0.0
2014-Nov-19 07:33N 51°15' E 004°24'0 0.0
2014-Nov-19 06:33N 51°15' E 004°24'0 0.0
2014-Nov-19 05:33N 51°15' E 004°24'0 0.0
2014-Nov-19 04:32N 51°15' E 004°24'0 0.0
2014-Nov-19 03:32N 51°15' E 004°24'0 0.0
2014-Nov-19 02:31N 51°15' E 004°24'0 0.0
2014-Nov-19 01:31N 51°15' E 004°24'0 0.0
2014-Nov-19 00:33N 51°15' E 004°24'0 0.0
2014-Nov-18 23:33N 51°15' E 004°24'0 0.0
2014-Nov-18 22:33N 51°15' E 004°24'0 0.0
2014-Nov-18 21:32N 51°15' E 004°24'0 0.0
2014-Nov-18 20:32N 51°15' E 004°24'0 0.0
2014-Nov-18 19:31N 51°15' E 004°24'0 0.0
2014-Nov-18 18:31N 51°15' E 004°24'0 0.0
2014-Nov-18 17:33N 51°15' E 004°24'0 0.0
2014-Nov-18 16:33N 51°15' E 004°24'0 0.0
2014-Nov-18 15:33N 51°15' E 004°24'0 0.0
2014-Nov-18 14:32N 51°15' E 004°24'0 0.0
2014-Nov-18 13:32N 51°15' E 004°24'0 0.0
2014-Nov-18 12:31N 51°15' E 004°24'0 0.0
2014-Nov-18 11:31N 51°15' E 004°24'0 0.0
2014-Nov-18 10:33N 51°15' E 004°24'0 0.0
2014-Nov-18 09:33N 51°15' E 004°24'0 0.0
2014-Nov-18 08:33N 51°15' E 004°24'0 0.0
2014-Nov-18 07:32N 51°15' E 004°24'0 0.0
2014-Nov-18 06:32N 51°15' E 004°24'0 0.0
2014-Nov-18 05:31N 51°15' E 004°24'0 0.0
2014-Nov-18 04:31N 51°15' E 004°24'0 0.0
2014-Nov-18 03:33N 51°15' E 004°24'0 0.0
2014-Nov-18 02:33N 51°15' E 004°24'0 0.0
2014-Nov-18 01:33N 51°15' E 004°24'0 0.0
2014-Nov-18 00:32N 51°15' E 004°24'0 0.0
2014-Nov-17 23:32N 51°15' E 004°24'0 0.0
2014-Nov-17 22:31N 51°15' E 004°24'0 0.0
2014-Nov-17 21:31N 51°15' E 004°24'0 0.0
2014-Nov-17 20:33N 51°15' E 004°24'0 0.0
2014-Nov-17 19:33N 51°15' E 004°24'0 0.0
2014-Nov-17 18:32N 51°15' E 004°24'0 0.0
2014-Nov-17 17:32N 51°15' E 004°24'0 0.0
2014-Nov-17 16:32N 51°15' E 004°24'0 0.0
2014-Nov-17 15:31N 51°15' E 004°24'0 0.0
2014-Nov-17 14:31N 51°15' E 004°24'0 0.0
2014-Nov-17 13:33N 51°15' E 004°24'0 0.0
2014-Nov-17 12:33N 51°15' E 004°24'0 0.0
2014-Nov-17 11:32N 51°15' E 004°24'0 0.0
2014-Nov-17 10:32N 51°15' E 004°24'0 0.0
2014-Nov-17 09:32N 51°15' E 004°24'0 0.0
2014-Nov-17 08:31N 51°15' E 004°24'0 0.0
2014-Nov-17 07:31N 51°15' E 004°24'0 0.0
2014-Nov-17 06:33N 51°15' E 004°24'0 0.0
2014-Nov-17 05:33N 51°15' E 004°24'0 0.0
2014-Nov-17 04:32N 51°15' E 004°24'0 0.0
2014-Nov-17 03:32N 51°15' E 004°24'0 0.0
2014-Nov-17 02:32N 51°15' E 004°24'0 0.0
2014-Nov-17 01:31N 51°15' E 004°24'0 0.0
2014-Nov-17 00:31N 51°15' E 004°24'0 0.0
2014-Nov-16 23:33N 51°15' E 004°24'0 0.0
2014-Nov-16 22:33N 51°15' E 004°24'0 0.0
2014-Nov-16 21:32N 51°15' E 004°24'0 0.0
2014-Nov-16 20:32N 51°15' E 004°24'0 0.0
2014-Nov-16 19:32N 51°15' E 004°24'0 0.0
2014-Nov-16 18:31N 51°15' E 004°24'0 0.0
2014-Nov-16 17:31N 51°15' E 004°24'0 0.0
2014-Nov-16 16:33N 51°15' E 004°24'0 0.0
2014-Nov-16 15:33N 51°15' E 004°24'0 0.0
2014-Nov-16 14:32N 51°15' E 004°24'0 0.0
2014-Nov-16 13:32N 51°15' E 004°24'0 0.0
2014-Nov-16 12:32N 51°15' E 004°24'0 0.0
2014-Nov-16 11:31N 51°15' E 004°24'0 0.0
2014-Nov-16 10:31N 51°15' E 004°24'0 0.0
2014-Nov-16 09:33N 51°15' E 004°24'0 0.0
2014-Nov-16 08:33N 51°15' E 004°24'0 0.0
2014-Nov-16 07:32N 51°15' E 004°24'0 0.0
2014-Nov-16 06:32N 51°15' E 004°24'0 0.0
2014-Nov-16 05:31N 51°15' E 004°24'0 0.0
2014-Nov-16 04:31N 51°15' E 004°24'0 0.0
2014-Nov-16 03:31N 51°15' E 004°24'0 0.0
2014-Nov-16 02:33N 51°15' E 004°24'0 0.0
2014-Nov-16 01:33N 51°15' E 004°24'0 0.0
2014-Nov-16 00:32N 51°15' E 004°24'0 0.0
2014-Nov-15 23:32N 51°15' E 004°24'0 0.0
2014-Nov-15 22:31N 51°15' E 004°24'0 0.0
2014-Nov-15 21:31N 51°15' E 004°24'  

Dump ship's entire track history